Terminal Aerodrome Forecast
Issued by NWS

Home | Current Version | Previous Version | Text Only | Print | Product List | Glossary On
Versions: 1 2 3 4 5 6 7 8 9 10 11 12 13 14 15 16 17 18 19 20 21 22 23 24 25 26 27
000
FTUS42 KILM 272359 CCA
TAFCRE
TAF COR
KCRE 272359Z 2800/2824 01010KT P6SM BKN010 OVC035
      TEMPO 2800/2803 3SM -DZ BR BKN008
     FM280400 35008KT 6SM -RA SCT015 OVC045
      TEMPO 2807/2811 BKN015
     FM281100 32010G17KT P6SM SCT020 SCT060 SCT150=

USA.gov is the U.S. government's official web portal to all federal, state and local government web resources and services.